Terminal Aerodrome Forecast
Issued by NWS

Home | Current Version | Previous Version | Graphics & Text | Print | Product List | Glossary On
Versions: 1 2 3 4 5 6 7 8 9 10 11 12 13
218
FTUS43 KTOP 191741
TAFFOE
TAF
KFOE 191741Z 1918/2018 16015G23KT P6SM FEW100
     FM200300 16012KT P6SM SKC WS018/18045KT
     FM201100 19013KT P6SM FEW200
     FM201400 23011KT P6SM FEW200
     FM201700 27010KT P6SM FEW200=

USA.gov is the U.S. government's official web portal to all federal, state and local government web resources and services.